Terminal Aerodrome Forecast
Issued by NWS Tuscon, AZ

Home | Current Version | Previous Version | Text Only | Print | Product List | Glossary On
Versions: 1 2 3 4 5 6 7 8 9 10 11 12
896
FTUS45 KTWC 301120
TAFDUG
TAF
KDUG 301120Z 3012/0112 VRB04KT P6SM SKC
     FM301600 17011KT P6SM SKC
     FM301900 22016G27KT P6SM SCT080
      TEMPO 3022/0102 23026G35KT P6SM
     FM010500 18011KT P6SM FEW080 SCT120=

USA.gov is the U.S. government's official web portal to all federal, state and local government web resources and services.